createdAt,value
2023-03-18T00:00:10.064Z,7.20
2023-03-18T00:02:38.893Z,7.20
2023-03-18T00:05:07.547Z,8.10
2023-03-18T00:07:36.309Z,7.10
2023-03-18T00:10:04.975Z,7.20
2023-03-18T00:12:33.141Z,7.20
2023-03-18T00:15:01.103Z,7.20
2023-03-18T00:17:28.074Z,7.20
2023-03-18T00:19:55.368Z,7.20
2023-03-18T00:22:22.771Z,7.20
2023-03-18T00:24:49.507Z,7.20
2023-03-18T00:27:16.797Z,7.20
2023-03-18T00:29:43.941Z,7.50
2023-03-18T00:32:11.275Z,7.30
2023-03-18T00:34:38.103Z,7.30
2023-03-18T00:37:05.093Z,7.30
2023-03-18T00:39:33.177Z,7.40
2023-03-18T00:42:08.097Z,7.30
2023-03-18T00:44:34.871Z,7.30
2023-03-18T00:47:01.759Z,7.30
2023-03-18T00:49:28.567Z,7.30
2023-03-18T00:51:55.289Z,7.40
2023-03-18T00:54:22.534Z,7.40
2023-03-18T00:56:49.709Z,8.80
2023-03-18T00:59:16.807Z,7.30
2023-03-18T01:01:43.621Z,7.40
2023-03-18T01:04:10.354Z,7.30
2023-03-18T01:06:38.473Z,7.30
2023-03-18T01:09:07.195Z,7.40
2023-03-18T01:11:33.929Z,7.30
2023-03-18T01:14:01.532Z,7.30
2023-03-18T01:16:29.792Z,7.40
2023-03-18T01:18:57.351Z,7.40
2023-03-18T01:21:24.517Z,7.40
2023-03-18T01:23:54.663Z,7.40
2023-03-18T01:26:22.205Z,7.40
2023-03-18T01:28:49.425Z,7.40
2023-03-18T01:31:16.333Z,7.40
2023-03-18T01:33:43.308Z,7.50
2023-03-18T01:36:17.691Z,7.50
2023-03-18T01:38:48.252Z,7.50
2023-03-18T01:41:17.244Z,7.50
2023-03-18T01:43:44.642Z,7.50
2023-03-18T01:46:32.492Z,7.50
2023-03-18T01:49:02.538Z,7.50
2023-03-18T01:51:29.593Z,7.50
2023-03-18T01:54:03.387Z,7.50
2023-03-18T01:56:30.974Z,7.50
2023-03-18T01:58:59.977Z,7.50
2023-03-18T02:01:53.833Z,9.30
2023-03-18T02:04:27.603Z,7.50
2023-03-18T02:06:58.273Z,7.60
2023-03-18T02:09:25.214Z,7.50
2023-03-18T02:14:23.790Z,7.50
2023-03-18T02:17:01.226Z,7.50
2023-03-18T02:19:47.926Z,7.50
2023-03-18T02:22:39.834Z,7.60
2023-03-18T02:25:15.144Z,7.50
2023-03-18T02:27:53.586Z,7.50
2023-03-18T02:30:28.465Z,7.60
2023-03-18T02:32:57.806Z,9.10
2023-03-18T02:35:26.850Z,7.60
2023-03-18T02:37:58.601Z,7.60
2023-03-18T02:40:29.869Z,7.60
2023-03-18T02:42:57.392Z,7.60
2023-03-18T02:45:45.034Z,7.60
2023-03-18T02:48:17.699Z,7.60
2023-03-18T02:50:45.754Z,7.60
2023-03-18T02:53:13.775Z,7.60
2023-03-18T02:55:41.666Z,7.60
2023-03-18T02:58:09.356Z,7.70
2023-03-18T03:00:37.399Z,7.70
2023-03-18T03:03:05.390Z,7.70
2023-03-18T03:05:34.104Z,7.70
2023-03-18T03:08:01.870Z,7.70
2023-03-18T03:10:29.777Z,7.70
2023-03-18T03:12:57.609Z,7.70
2023-03-18T03:15:25.115Z,7.70
2023-03-18T03:17:52.328Z,7.70
2023-03-18T03:20:19.786Z,7.70
2023-03-18T03:22:50.513Z,7.60
2023-03-18T03:25:17.687Z,8.90
2023-03-18T03:27:44.666Z,7.60
2023-03-18T03:30:13.693Z,7.60
2023-03-18T03:32:41.070Z,7.70
2023-03-18T03:35:09.300Z,7.60
2023-03-18T03:37:36.149Z,7.70
2023-03-18T03:40:06.209Z,7.60
2023-03-18T03:42:33.157Z,7.70
2023-03-18T03:45:03.248Z,7.70
2023-03-18T03:47:30.010Z,7.80
2023-03-18T03:49:57.354Z,8.00
2023-03-18T03:52:24.347Z,7.80
2023-03-18T03:55:00.722Z,7.80
2023-03-18T03:57:27.815Z,7.70
2023-03-18T03:59:54.764Z,7.70
2023-03-18T04:02:23.912Z,7.70
2023-03-18T04:04:52.770Z,8.10
2023-03-18T04:07:21.092Z,7.60
2023-03-18T04:09:49.492Z,7.60
2023-03-18T04:12:18.380Z,7.60
2023-03-18T04:14:46.950Z,7.60
2023-03-18T04:17:14.400Z,7.60
2023-03-18T04:19:44.436Z,7.60
2023-03-18T04:22:11.602Z,7.60
2023-03-18T04:24:39.684Z,7.60
2023-03-18T04:27:07.088Z,7.50
2023-03-18T04:29:37.683Z,7.50
2023-03-18T04:32:05.746Z,7.50
2023-03-18T04:34:32.831Z,7.50
2023-03-18T04:36:59.732Z,7.40
2023-03-18T04:39:26.471Z,7.40
2023-03-18T04:41:54.693Z,8.20
2023-03-18T04:44:21.405Z,7.40
2023-03-18T04:46:48.322Z,7.40
2023-03-18T04:49:15.290Z,7.80
2023-03-18T04:51:42.649Z,7.40
2023-03-18T04:54:09.473Z,7.40
2023-03-18T04:56:36.320Z,7.40
2023-03-18T04:59:03.362Z,7.40
2023-03-18T05:01:30.278Z,7.40
2023-03-18T05:03:57.302Z,7.40
2023-03-18T05:06:27.111Z,7.40
2023-03-18T05:08:54.382Z,7.40
2023-03-18T05:11:21.518Z,7.40
2023-03-18T05:13:48.927Z,8.40
2023-03-18T05:16:15.720Z,7.50
2023-03-18T05:18:42.603Z,7.50
2023-03-18T05:21:10.287Z,7.50
2023-03-18T05:23:37.909Z,7.50
2023-03-18T05:26:05.637Z,7.50
2023-03-18T05:28:37.105Z,7.50
2023-03-18T05:31:04.317Z,7.50
2023-03-18T05:33:31.074Z,7.50
2023-03-18T05:35:59.220Z,7.50
2023-03-18T05:38:26.388Z,7.50
2023-03-18T05:40:53.431Z,7.40
2023-03-18T05:43:21.913Z,7.50
2023-03-18T05:45:48.795Z,7.40
2023-03-18T05:48:19.139Z,9.00
2023-03-18T05:50:46.887Z,7.50
2023-03-18T05:53:16.297Z,7.50
2023-03-18T05:55:43.287Z,7.50
2023-03-18T05:58:11.835Z,9.20
2023-03-18T06:00:39.005Z,7.60
2023-03-18T06:03:09.693Z,7.60
2023-03-18T06:05:36.971Z,7.60
2023-03-18T06:08:07.320Z,7.50
2023-03-18T06:10:34.265Z,7.60
2023-03-18T06:13:01.203Z,7.60
2023-03-18T06:15:32.291Z,7.70
2023-03-18T06:18:00.072Z,7.80
2023-03-18T06:20:27.368Z,7.90
2023-03-18T06:22:56.890Z,7.90
2023-03-18T06:25:25.383Z,7.90
2023-03-18T06:27:52.416Z,7.90
2023-03-18T06:30:22.245Z,7.90
2023-03-18T06:32:53.921Z,8.00
2023-03-18T06:35:21.068Z,8.00
2023-03-18T06:37:48.522Z,7.90
2023-03-18T06:40:15.990Z,7.90
2023-03-18T06:42:43.337Z,7.90
2023-03-18T06:45:11.010Z,7.90
2023-03-18T06:47:38.508Z,7.90
2023-03-18T06:50:05.904Z,7.90
2023-03-18T06:52:33.096Z,7.90
2023-03-18T06:55:00.490Z,7.90
2023-03-18T06:57:27.823Z,7.90
2023-03-18T06:59:55.092Z,7.90
2023-03-18T07:02:25.648Z,7.80
2023-03-18T07:04:55.006Z,7.80
2023-03-18T07:07:25.399Z,7.80
2023-03-18T07:09:52.881Z,7.80
2023-03-18T07:12:19.658Z,7.80
2023-03-18T07:14:47.055Z,7.80
2023-03-18T07:17:14.694Z,7.80
2023-03-18T07:19:42.241Z,7.80
2023-03-18T07:22:09.151Z,9.10
2023-03-18T07:24:36.281Z,7.80
2023-03-18T07:27:04.419Z,7.80
2023-03-18T07:29:31.434Z,7.80
2023-03-18T07:31:58.405Z,7.80
2023-03-18T07:34:25.369Z,7.90
2023-03-18T07:36:52.925Z,7.90
2023-03-18T07:39:20.966Z,8.00
2023-03-18T07:41:49.445Z,8.00
2023-03-18T07:44:16.261Z,8.00
2023-03-18T07:46:43.034Z,8.10
2023-03-18T07:49:09.970Z,8.10
2023-03-18T07:51:36.944Z,8.10
2023-03-18T07:54:04.977Z,8.10
2023-03-18T07:56:31.977Z,8.20
2023-03-18T07:58:59.444Z,8.40
2023-03-18T08:01:26.408Z,8.30
2023-03-18T08:03:53.319Z,8.30
2023-03-18T08:06:20.710Z,8.40
2023-03-18T08:08:47.677Z,9.40
2023-03-18T08:11:14.808Z,8.60
2023-03-18T08:13:41.656Z,8.60
2023-03-18T08:16:09.196Z,8.70
2023-03-18T08:18:36.618Z,8.70
2023-03-18T08:21:03.644Z,8.60
2023-03-18T08:23:30.516Z,8.60
2023-03-18T08:25:57.413Z,9.60
2023-03-18T08:28:24.401Z,8.60
2023-03-18T08:30:57.961Z,8.70
2023-03-18T08:33:26.272Z,8.70
2023-03-18T08:35:54.047Z,8.70
2023-03-18T08:38:20.816Z,8.80
2023-03-18T08:40:48.353Z,8.80
2023-03-18T08:43:15.411Z,8.80
2023-03-18T08:45:43.183Z,8.90
2023-03-18T08:48:10.972Z,9.00
2023-03-18T08:50:37.775Z,9.00
2023-03-18T08:53:05.881Z,9.10
2023-03-18T08:55:37.312Z,9.10
2023-03-18T08:58:05.887Z,9.20
2023-03-18T09:00:37.786Z,9.20
2023-03-18T09:03:05.676Z,9.30
2023-03-18T09:05:33.161Z,9.30
2023-03-18T09:08:00.384Z,10.10
2023-03-18T09:10:27.723Z,9.70
2023-03-18T09:12:54.687Z,9.40
2023-03-18T09:15:22.488Z,9.50
2023-03-18T09:18:04.175Z,9.50
2023-03-18T09:20:37.793Z,9.60
2023-03-18T09:23:05.094Z,10.50
2023-03-18T09:25:32.537Z,10.00
2023-03-18T09:28:00.469Z,11.10
2023-03-18T09:30:28.062Z,11.00
2023-03-18T09:32:55.103Z,10.70
2023-03-18T09:35:22.268Z,9.70
2023-03-18T09:37:49.179Z,9.70
2023-03-18T09:40:26.522Z,9.80
2023-03-18T09:43:17.258Z,9.80
2023-03-18T09:46:18.481Z,9.70
2023-03-18T09:49:05.157Z,9.70
2023-03-18T09:52:18.896Z,9.80
2023-03-18T09:55:00.105Z,9.80
2023-03-18T09:57:33.794Z,9.90
2023-03-18T10:00:09.233Z,10.30
2023-03-18T10:02:45.532Z,10.00
2023-03-18T10:05:19.765Z,10.00
2023-03-18T10:07:49.974Z,10.00
2023-03-18T10:10:25.959Z,9.90
2023-03-18T10:13:01.797Z,9.90
2023-03-18T10:15:37.103Z,10.00
2023-03-18T10:18:26.466Z,10.00
2023-03-18T10:21:41.665Z,9.90
2023-03-18T10:24:27.521Z,9.90
2023-03-18T10:27:09.286Z,9.90
2023-03-18T10:30:22.609Z,9.80
2023-03-18T10:33:26.162Z,10.30
2023-03-18T10:36:08.797Z,9.90
2023-03-18T10:38:44.931Z,10.00
2023-03-18T10:41:29.134Z,10.00
2023-03-18T10:44:01.140Z,10.00
2023-03-18T10:46:28.340Z,11.10
2023-03-18T10:49:01.784Z,10.10
2023-03-18T10:51:52.521Z,10.00
2023-03-18T10:54:25.021Z,9.90
2023-03-18T10:56:53.197Z,9.90
2023-03-18T10:59:22.588Z,10.00
2023-03-18T11:02:01.467Z,10.00
2023-03-18T11:04:32.670Z,10.10
2023-03-18T11:07:04.493Z,10.00
2023-03-18T11:09:36.944Z,10.00
2023-03-18T11:12:09.326Z,10.00
2023-03-18T11:14:40.416Z,10.00
2023-03-18T11:17:23.895Z,10.10
2023-03-18T11:20:02.740Z,10.20
2023-03-18T11:22:30.345Z,10.20
2023-03-18T11:25:18.371Z,10.30
2023-03-18T11:27:52.326Z,10.30
2023-03-18T11:30:34.656Z,10.30
2023-03-18T11:33:12.397Z,10.20
2023-03-18T11:35:41.107Z,10.20
2023-03-18T11:38:29.127Z,10.20
2023-03-18T11:41:18.091Z,10.30
2023-03-18T11:44:03.496Z,10.50
2023-03-18T11:46:55.472Z,10.80
2023-03-18T11:49:28.323Z,10.90
2023-03-18T11:52:16.695Z,12.30
2023-03-18T11:55:10.767Z,11.00
2023-03-18T11:57:57.691Z,11.10
2023-03-18T12:00:43.443Z,11.10
2023-03-18T12:03:22.704Z,11.00
2023-03-18T12:06:11.027Z,11.00
2023-03-18T12:08:57.193Z,11.10
2023-03-18T12:11:41.940Z,11.10
2023-03-18T12:14:26.093Z,11.10
2023-03-18T12:17:01.294Z,11.00
2023-03-18T12:19:46.860Z,10.90
2023-03-18T12:22:25.853Z,10.90
2023-03-18T12:25:07.668Z,10.80
2023-03-18T12:27:54.008Z,10.70
2023-03-18T12:30:42.674Z,10.70
2023-03-18T12:33:29.606Z,10.80
2023-03-18T12:36:14.578Z,10.90
2023-03-18T12:38:59.868Z,11.10
2023-03-18T12:41:59.246Z,11.20
2023-03-18T12:44:46.852Z,11.30
2023-03-18T12:47:52.600Z,11.40
2023-03-18T12:50:36.632Z,11.50
2023-03-18T12:53:24.135Z,11.40
2023-03-18T12:55:56.857Z,11.40
2023-03-18T12:58:27.190Z,11.20
2023-03-18T13:01:18.471Z,11.20
2023-03-18T13:03:49.163Z,11.10
2023-03-18T13:06:22.328Z,11.10
2023-03-18T13:08:57.378Z,11.10
2023-03-18T13:11:53.780Z,11.20
2023-03-18T13:14:54.262Z,11.30
2023-03-18T13:17:29.686Z,11.30
2023-03-18T13:20:00.416Z,11.30
2023-03-18T13:22:36.083Z,12.70
2023-03-18T13:25:08.326Z,13.20
2023-03-18T13:28:03.100Z,11.50
2023-03-18T13:30:50.191Z,11.60
2023-03-18T13:33:44.948Z,11.50
2023-03-18T13:36:47.332Z,11.20
2023-03-18T13:39:51.130Z,11.00
2023-03-18T13:42:33.673Z,10.80
2023-03-18T13:45:05.235Z,10.90
2023-03-18T13:47:35.504Z,10.90
2023-03-18T13:50:06.725Z,10.90
2023-03-18T13:52:55.119Z,11.00
2023-03-18T13:55:47.367Z,10.90
2023-03-18T13:58:48.389Z,11.80
2023-03-18T14:01:24.702Z,10.70
2023-03-18T14:03:51.678Z,11.70
2023-03-18T14:06:44.773Z,10.70
2023-03-18T14:09:32.503Z,10.60
2023-03-18T14:12:22.502Z,10.50
2023-03-18T14:14:53.796Z,10.40
2023-03-18T14:17:38.757Z,10.40
2023-03-18T14:20:19.556Z,10.40
2023-03-18T14:22:51.484Z,10.50
2023-03-18T14:25:18.230Z,10.50
2023-03-18T14:27:55.096Z,10.60
2023-03-18T14:30:31.738Z,10.60
2023-03-18T14:33:05.869Z,10.60
2023-03-18T14:35:45.315Z,10.60
2023-03-18T14:38:38.269Z,10.60
2023-03-18T14:41:22.466Z,10.70
2023-03-18T14:44:21.813Z,10.80
2023-03-18T14:46:51.901Z,10.80
2023-03-18T14:49:43.627Z,10.70
2023-03-18T14:52:20.933Z,10.60
2023-03-18T14:54:52.742Z,10.50
2023-03-18T14:57:22.184Z,10.40
2023-03-18T14:59:49.009Z,11.20
2023-03-18T15:02:30.426Z,10.20
2023-03-18T15:04:58.265Z,10.20
2023-03-18T15:07:33.373Z,10.20
2023-03-18T15:10:27.941Z,10.10
2023-03-18T15:13:11.211Z,10.10
2023-03-18T15:15:38.347Z,10.10
2023-03-18T15:18:24.662Z,10.10
2023-03-18T15:20:57.194Z,10.10
2023-03-18T15:23:31.629Z,10.20
2023-03-18T15:25:58.366Z,10.30
2023-03-18T15:28:28.337Z,10.30
2023-03-18T15:30:58.447Z,10.40
2023-03-18T15:33:31.080Z,10.30
2023-03-18T15:36:06.299Z,10.20
2023-03-18T15:38:34.025Z,10.10
2023-03-18T15:41:02.974Z,10.10
2023-03-18T15:43:36.333Z,10.10
2023-03-18T15:46:15.518Z,10.10
2023-03-18T15:48:55.847Z,10.00
2023-03-18T15:51:40.679Z,10.00
2023-03-18T15:54:26.495Z,9.90
2023-03-18T15:56:55.392Z,9.90
2023-03-18T15:59:33.295Z,9.90
2023-03-18T16:02:00.955Z,9.90
2023-03-18T16:04:34.300Z,9.90
2023-03-18T16:07:01.452Z,9.80
2023-03-18T16:09:28.262Z,9.80
2023-03-18T16:12:13.140Z,9.80
2023-03-18T16:14:42.840Z,9.80
2023-03-18T16:17:14.290Z,9.80
2023-03-18T16:19:41.469Z,9.80
2023-03-18T16:22:09.648Z,9.80
2023-03-18T16:24:37.322Z,9.70
2023-03-18T16:27:05.554Z,9.70
2023-03-18T16:29:34.528Z,9.70
2023-03-18T16:32:02.798Z,9.60
2023-03-18T16:34:29.893Z,9.60
2023-03-18T16:36:57.197Z,9.60
2023-03-18T16:39:34.181Z,9.60
2023-03-18T16:42:03.488Z,9.60
2023-03-18T16:44:38.051Z,9.60
2023-03-18T16:47:05.233Z,9.50
2023-03-18T16:49:34.500Z,9.50
2023-03-18T16:52:03.910Z,9.50
2023-03-18T16:54:33.369Z,9.70
2023-03-18T16:57:04.570Z,11.20
2023-03-18T16:59:37.088Z,10.10
2023-03-18T17:02:04.784Z,9.50
2023-03-18T17:04:34.386Z,9.40
2023-03-18T17:07:04.509Z,10.10
2023-03-18T17:09:32.059Z,9.40
2023-03-18T17:12:04.243Z,9.80
2023-03-18T17:14:43.341Z,9.40
2023-03-18T17:17:28.207Z,9.40
2023-03-18T17:19:55.588Z,9.30
2023-03-18T17:22:27.878Z,9.30
2023-03-18T17:24:54.864Z,9.80
2023-03-18T17:27:25.714Z,9.10
2023-03-18T17:29:52.821Z,9.10
2023-03-18T17:32:19.629Z,9.10
2023-03-18T17:34:48.279Z,9.10
2023-03-18T17:37:15.171Z,9.10
2023-03-18T17:39:42.038Z,9.10
2023-03-18T17:42:29.776Z,9.10
2023-03-18T17:44:59.465Z,9.00
2023-03-18T17:47:26.392Z,9.20
2023-03-18T17:49:53.842Z,9.00
2023-03-18T17:52:22.204Z,9.20
2023-03-18T17:54:48.956Z,10.60
2023-03-18T17:57:16.701Z,9.20
2023-03-18T17:59:44.251Z,9.00
2023-03-18T18:02:18.178Z,9.00
2023-03-18T18:04:45.960Z,9.00
2023-03-18T18:07:18.324Z,10.20
2023-03-18T18:09:46.471Z,9.00
2023-03-18T18:12:27.467Z,10.00
2023-03-18T18:14:54.620Z,10.40
2023-03-18T18:17:22.131Z,8.90
2023-03-18T18:19:48.889Z,8.90
2023-03-18T18:22:19.203Z,8.80
2023-03-18T18:24:47.672Z,9.70
2023-03-18T18:27:15.762Z,8.80
2023-03-18T18:29:46.148Z,8.70
2023-03-18T18:32:13.161Z,8.70
2023-03-18T18:34:40.262Z,8.70
2023-03-18T18:37:08.020Z,8.70
2023-03-18T18:39:34.810Z,8.60
2023-03-18T18:42:02.069Z,10.20
2023-03-18T18:44:28.797Z,8.50
2023-03-18T18:46:56.130Z,8.60
2023-03-18T18:49:24.334Z,8.60
2023-03-18T18:51:53.751Z,8.60
2023-03-18T18:54:22.245Z,8.60
2023-03-18T18:56:49.595Z,8.50
2023-03-18T18:59:27.668Z,8.50
2023-03-18T19:01:55.547Z,8.50
2023-03-18T19:04:23.796Z,8.80
2023-03-18T19:06:52.829Z,8.60
2023-03-18T19:09:23.603Z,8.70
2023-03-18T19:11:51.932Z,8.60
2023-03-18T19:14:24.581Z,8.60
2023-03-18T19:16:52.332Z,10.40
2023-03-18T19:19:26.821Z,8.60
2023-03-18T19:21:53.727Z,8.60
2023-03-18T19:24:31.691Z,8.60
2023-03-18T19:27:02.041Z,8.60
2023-03-18T19:29:29.415Z,8.60
2023-03-18T19:31:56.486Z,8.70
2023-03-18T19:34:23.814Z,8.70
2023-03-18T19:36:53.409Z,8.70
2023-03-18T19:39:22.798Z,8.70
2023-03-18T19:41:49.600Z,8.70
2023-03-18T19:44:21.670Z,8.70
2023-03-18T19:46:51.355Z,8.70
2023-03-18T19:49:33.836Z,8.60
2023-03-18T19:52:02.075Z,8.60
2023-03-18T19:54:34.902Z,8.60
2023-03-18T19:57:14.062Z,8.60
2023-03-18T19:59:42.062Z,8.60
2023-03-18T20:02:24.974Z,8.60
2023-03-18T20:04:54.348Z,8.60
2023-03-18T20:07:23.586Z,8.60
2023-03-18T20:09:50.788Z,8.60
2023-03-18T20:12:24.965Z,8.60
2023-03-18T20:14:52.415Z,8.60
2023-03-18T20:17:31.171Z,8.60
2023-03-18T20:19:58.708Z,8.60
2023-03-18T20:22:32.494Z,8.60
2023-03-18T20:25:00.033Z,8.60
2023-03-18T20:27:26.923Z,8.60
2023-03-18T20:29:53.631Z,8.60
2023-03-18T20:32:20.359Z,8.60
2023-03-18T20:34:47.231Z,8.70
2023-03-18T20:37:34.259Z,8.70
2023-03-18T20:40:02.816Z,9.70
2023-03-18T20:42:29.560Z,8.70
2023-03-18T20:44:56.312Z,8.70
2023-03-18T20:47:23.168Z,8.70
2023-03-18T20:49:49.924Z,8.70
2023-03-18T20:52:27.672Z,8.70
2023-03-18T20:54:56.669Z,8.70
2023-03-18T20:57:24.230Z,8.70
2023-03-18T20:59:51.806Z,8.70
2023-03-18T21:02:33.583Z,8.70
2023-03-18T21:05:03.329Z,8.70
2023-03-18T21:07:30.787Z,8.70
2023-03-18T21:09:57.583Z,9.40
2023-03-18T21:12:24.672Z,8.70
2023-03-18T21:14:51.857Z,8.70
2023-03-18T21:17:22.859Z,8.70
2023-03-18T21:19:51.218Z,8.70
2023-03-18T21:22:33.411Z,8.70
2023-03-18T21:25:00.261Z,8.70
2023-03-18T21:27:28.179Z,8.70
2023-03-18T21:29:57.905Z,8.70
2023-03-18T21:32:28.385Z,8.70
2023-03-18T21:34:56.359Z,8.70
2023-03-18T21:37:24.724Z,8.80
2023-03-18T21:39:51.896Z,8.80
2023-03-18T21:42:28.449Z,8.90
2023-03-18T21:44:56.616Z,8.80
2023-03-18T21:47:25.661Z,8.70
2023-03-18T21:49:52.372Z,8.60
2023-03-18T21:52:34.606Z,8.60
2023-03-18T21:55:02.963Z,8.60
2023-03-18T21:57:30.607Z,8.60
2023-03-18T21:59:57.289Z,8.50
2023-03-18T22:02:30.876Z,8.50
2023-03-18T22:05:00.299Z,8.60
2023-03-18T22:07:29.297Z,8.60
2023-03-18T22:09:57.534Z,8.70
2023-03-18T22:12:29.957Z,8.70
2023-03-18T22:14:57.753Z,8.70
2023-03-18T22:17:30.410Z,8.70
2023-03-18T22:19:59.120Z,8.70
2023-03-18T22:22:31.365Z,8.70
2023-03-18T22:24:58.121Z,8.70
2023-03-18T22:27:27.559Z,8.70
2023-03-18T22:29:56.746Z,8.70
2023-03-18T22:32:43.785Z,8.70
2023-03-18T22:35:15.012Z,8.70
2023-03-18T22:37:42.389Z,8.70
2023-03-18T22:40:18.464Z,9.40
2023-03-18T22:42:50.701Z,8.60
2023-03-18T22:45:30.644Z,9.80
2023-03-18T22:48:01.003Z,8.50
2023-03-18T22:50:30.511Z,8.40
2023-03-18T22:53:06.396Z,8.40
2023-03-18T22:55:37.380Z,8.40
2023-03-18T22:58:04.260Z,8.50
2023-03-18T23:00:39.302Z,8.50
2023-03-18T23:03:19.649Z,8.50
2023-03-18T23:05:48.845Z,8.50
2023-03-18T23:08:17.490Z,8.50
2023-03-18T23:10:48.644Z,8.50
2023-03-18T23:13:36.732Z,9.40
2023-03-18T23:16:09.415Z,8.20
2023-03-18T23:18:37.517Z,8.20
2023-03-18T23:21:04.320Z,8.20
2023-03-18T23:23:32.786Z,8.10
2023-03-18T23:25:59.781Z,8.20
2023-03-18T23:28:26.533Z,9.90
2023-03-18T23:30:53.733Z,8.40
2023-03-18T23:33:20.587Z,8.40
2023-03-18T23:35:49.890Z,9.30
2023-03-18T23:38:16.711Z,9.00
2023-03-18T23:40:43.889Z,8.60
2023-03-18T23:43:10.707Z,8.60
2023-03-18T23:45:38.769Z,8.60
2023-03-18T23:48:06.737Z,9.70
2023-03-18T23:50:34.037Z,8.60
2023-03-18T23:53:01.332Z,8.70
2023-03-18T23:55:45.429Z,9.40
2023-03-18T23:58:12.373Z,8.70
